Terminal Aerodrome Forecast
Issued by NWS State College, PA

Home | Current Version | Previous Version | Text Only | Print | Product List | Glossary On
Versions: 1 2 3 4 5 6 7 8 9 10 11 12 13 14 15 16 17 18 19 20 21 22 23 24 25 26
000
FTUS41 KCTP 281720
TAFMDT
TAF
KMDT 281720Z 2818/2918 17007KT P6SM SCT050
     FM281900 18006KT P6SM VCSH BKN050
     FM282300 00000KT 6SM BR SKC
     FM291300 VRB03KT P6SM SCT040=

USA.gov is the U.S. government's official web portal to all federal, state and local government web resources and services.